createdAt,value
2018-05-08T00:01:17.564Z,94.10
2018-05-08T00:03:46.633Z,94.30
2018-05-08T00:06:15.692Z,94.40
2018-05-08T00:08:43.977Z,94.40
2018-05-08T00:11:12.245Z,94.50
2018-05-08T00:13:40.543Z,94.60
2018-05-08T00:16:08.785Z,94.60
2018-05-08T00:18:37.027Z,94.70
2018-05-08T00:21:05.321Z,94.80
2018-05-08T00:23:34.337Z,94.90
2018-05-08T00:26:02.669Z,94.90
2018-05-08T00:28:30.975Z,95.00
2018-05-08T00:30:59.323Z,95.40
2018-05-08T00:33:27.550Z,95.20
2018-05-08T00:35:55.801Z,95.20
2018-05-08T00:38:24.867Z,95.40
2018-05-08T00:40:53.909Z,95.40
2018-05-08T00:43:22.955Z,95.50
2018-05-08T00:45:51.190Z,95.50
2018-05-08T00:48:19.513Z,95.50
2018-05-08T00:50:48.226Z,95.60
2018-05-08T00:53:17.228Z,95.80
2018-05-08T00:55:45.530Z,95.80
2018-05-08T00:58:13.931Z,95.70
2018-05-08T01:00:42.158Z,95.80
2018-05-08T01:03:11.175Z,95.90
2018-05-08T01:05:39.416Z,95.90
2018-05-08T01:08:08.451Z,96.10
2018-05-08T01:10:36.759Z,96.10
2018-05-08T01:13:05.073Z,96.20
2018-05-08T01:15:33.912Z,96.30
2018-05-08T01:18:02.181Z,96.30
2018-05-08T01:20:30.451Z,96.40
2018-05-08T01:22:58.679Z,96.50
2018-05-08T01:25:27.811Z,96.60
2018-05-08T01:27:57.335Z,96.60
2018-05-08T01:30:25.560Z,96.90
2018-05-08T01:32:55.513Z,96.80
2018-05-08T01:35:23.856Z,96.80
2018-05-08T01:37:52.207Z,96.90
2018-05-08T01:40:20.437Z,97.30
2018-05-08T01:42:48.720Z,97.00
2018-05-08T01:45:16.993Z,97.10
2018-05-08T01:47:45.289Z,97.20
2018-05-08T01:50:13.603Z,97.30
2018-05-08T01:52:41.875Z,97.30
2018-05-08T01:55:10.229Z,97.40
2018-05-08T01:57:38.468Z,97.70
2018-05-08T02:00:06.715Z,97.50
2018-05-08T02:02:35.001Z,97.50
2018-05-08T02:05:04.036Z,97.60
2018-05-08T02:07:32.279Z,97.60
2018-05-08T02:10:01.320Z,97.70
2018-05-08T02:12:29.785Z,97.70
2018-05-08T02:14:58.050Z,97.80
2018-05-08T02:17:26.324Z,97.80
2018-05-08T02:19:55.344Z,98.20
2018-05-08T02:22:23.719Z,97.90
2018-05-08T02:24:52.777Z,97.90
2018-05-08T02:27:21.836Z,97.90
2018-05-08T02:29:50.878Z,97.90
2018-05-08T02:32:19.930Z,98.30
2018-05-08T02:34:48.169Z,98.00
2018-05-08T02:37:16.443Z,98.00
2018-05-08T02:39:44.727Z,98.10
2018-05-08T02:42:14.684Z,98.10
2018-05-08T02:44:43.030Z,98.10
2018-05-08T02:47:11.301Z,98.50
2018-05-08T02:49:39.608Z,98.10
2018-05-08T02:52:07.871Z,98.10
2018-05-08T02:54:36.153Z,98.10
2018-05-08T02:57:04.447Z,98.20
2018-05-08T02:59:32.720Z,98.20
2018-05-08T03:02:02.502Z,98.20
2018-05-08T03:04:30.829Z,98.20
2018-05-08T03:06:59.820Z,98.10
2018-05-08T03:09:28.970Z,98.10
2018-05-08T03:11:57.232Z,98.10
2018-05-08T03:14:25.612Z,98.20
2018-05-08T03:16:53.889Z,98.20
2018-05-08T03:19:22.180Z,98.20
2018-05-08T03:21:50.464Z,98.20
2018-05-08T03:24:19.957Z,98.20
2018-05-08T03:26:48.211Z,98.20
2018-05-08T03:29:16.529Z,98.20
2018-05-08T03:31:44.866Z,98.30
2018-05-08T03:34:13.132Z,98.20
2018-05-08T03:36:41.372Z,98.20
2018-05-08T03:39:09.593Z,98.20
2018-05-08T03:41:38.037Z,98.20
2018-05-08T03:44:06.400Z,98.20
2018-05-08T03:46:34.657Z,98.30
2018-05-08T03:49:02.960Z,98.30
2018-05-08T03:51:31.231Z,98.20
2018-05-08T03:53:59.522Z,98.20
2018-05-08T03:56:27.893Z,98.20
2018-05-08T03:58:56.149Z,98.10
2018-05-08T04:01:36.293Z,98.10
2018-05-08T04:04:16.295Z,98.00
2018-05-08T04:06:58.089Z,98.00
2018-05-08T04:09:27.163Z,97.90
2018-05-08T04:11:55.445Z,97.90
2018-05-08T04:14:23.768Z,97.80
2018-05-08T04:16:52.069Z,97.80
2018-05-08T04:19:21.232Z,97.70
2018-05-08T04:21:49.474Z,97.50
2018-05-08T04:24:17.788Z,97.40
2018-05-08T04:26:46.824Z,97.20
2018-05-08T04:29:15.104Z,97.20
2018-05-08T04:31:43.349Z,97.00
2018-05-08T04:34:11.642Z,96.90
2018-05-08T04:36:39.991Z,96.80
2018-05-08T04:39:09.711Z,96.60
2018-05-08T04:41:37.965Z,96.60
2018-05-08T04:44:06.989Z,96.50
2018-05-08T04:46:35.294Z,96.50
2018-05-08T04:49:03.640Z,96.30
2018-05-08T04:51:31.931Z,96.20
2018-05-08T04:54:01.654Z,95.90
2018-05-08T04:56:29.959Z,95.90
2018-05-08T04:58:58.301Z,95.70
2018-05-08T05:01:26.596Z,94.70
2018-05-08T05:03:54.879Z,91.90
2018-05-08T05:06:23.136Z,90.40
2018-05-08T05:08:53.113Z,88.40
2018-05-08T05:11:23.033Z,80.10
2018-05-08T05:13:51.290Z,80.10
2018-05-08T05:16:19.562Z,77.10
2018-05-08T05:18:48.617Z,72.10
2018-05-08T05:21:16.891Z,72.00
2018-05-08T05:23:45.157Z,70.70
2018-05-08T05:26:13.385Z,69.50
2018-05-08T05:28:42.437Z,65.70
2018-05-08T05:31:10.841Z,65.60
2018-05-08T05:33:39.224Z,65.00
2018-05-08T05:36:07.458Z,65.40
2018-05-08T05:38:36.890Z,64.60
2018-05-08T05:41:05.116Z,63.10
2018-05-08T05:43:33.411Z,61.20
2018-05-08T05:46:02.523Z,58.40
2018-05-08T05:48:30.930Z,58.20
2018-05-08T05:50:59.163Z,55.90
2018-05-08T05:53:27.444Z,56.10
2018-05-08T05:55:55.692Z,55.90
2018-05-08T05:58:23.999Z,52.90
2018-05-08T06:00:52.268Z,52.30
2018-05-08T06:03:20.541Z,53.10
2018-05-08T06:05:48.896Z,52.30
2018-05-08T06:10:49.597Z,52.00
2018-05-08T06:13:17.900Z,50.80
2018-05-08T06:15:47.664Z,47.30
2018-05-08T06:18:15.933Z,47.30
2018-05-08T06:20:44.998Z,47.70
2018-05-08T06:23:14.111Z,50.20
2018-05-08T06:25:42.377Z,50.20
2018-05-08T06:28:10.647Z,50.20
2018-05-08T06:30:38.967Z,49.40
2018-05-08T06:33:07.238Z,48.60
2018-05-08T06:35:35.545Z,47.30
2018-05-08T06:38:03.823Z,47.90
2018-05-08T06:40:32.069Z,47.50
2018-05-08T06:43:00.696Z,47.10
2018-05-08T06:45:29.727Z,44.40
2018-05-08T06:47:58.020Z,44.10
2018-05-08T06:50:26.304Z,43.20
2018-05-08T10:46:59.369Z,42.30
2018-05-08T16:10:00.155Z,35.50
2018-05-08T19:00:31.011Z,45.80
2018-05-08T19:23:31.098Z,47.60
2018-05-08T23:20:32.425Z,79.20
